createdAt,value
2022-09-09T00:13:17.564Z,100.00
2022-09-09T00:28:21.313Z,100.00
2022-09-09T00:43:40.243Z,100.00
2022-09-09T00:59:08.773Z,100.00
2022-09-09T01:14:37.487Z,100.00
2022-09-09T01:29:41.647Z,100.00
2022-09-09T01:44:45.023Z,100.00
2022-09-09T02:00:08.735Z,100.00
2022-09-09T02:15:31.357Z,100.00
2022-09-09T02:30:35.332Z,100.00
2022-09-09T02:45:44.191Z,100.00
2022-09-09T03:00:50.965Z,100.00
2022-09-09T03:15:55.174Z,100.00
2022-09-09T03:31:04.255Z,100.00
2022-09-09T03:46:11.120Z,100.00
2022-09-09T04:01:14.695Z,100.00
2022-09-09T04:16:18.998Z,100.00
2022-09-09T04:31:23.862Z,100.00
2022-09-09T04:46:29.216Z,100.00
2022-09-09T05:01:33.316Z,100.00
2022-09-09T05:16:38.986Z,100.00
2022-09-09T05:31:42.584Z,100.00
2022-09-09T05:46:49.292Z,100.00
2022-09-09T06:01:52.352Z,100.00
2022-09-09T06:17:03.405Z,100.00
2022-09-09T06:32:07.057Z,100.00
2022-09-09T06:47:09.326Z,100.00
2022-09-09T07:02:12.217Z,100.00
2022-09-09T07:17:15.413Z,76.11
2022-09-09T07:32:20.623Z,72.97
2022-09-09T07:47:23.053Z,71.63
2022-09-09T08:02:29.009Z,83.70
2022-09-09T08:17:31.294Z,84.98
2022-09-09T08:32:36.432Z,69.78
2022-09-09T08:48:08.143Z,59.00
2022-09-09T09:03:40.353Z,54.98
2022-09-09T09:18:43.909Z,55.40
2022-09-09T09:33:55.465Z,50.93
2022-09-09T09:49:06.287Z,55.23
2022-09-09T10:04:22.700Z,53.84
2022-09-09T10:19:33.447Z,65.48
2022-09-09T10:34:55.192Z,100.00
2022-09-09T10:50:20.823Z,100.00
2022-09-09T11:05:35.707Z,81.81
2022-09-09T11:20:37.915Z,64.06
2022-09-09T11:35:39.978Z,63.52
2022-09-09T11:50:42.256Z,65.40
2022-09-09T12:05:45.324Z,74.85
2022-09-09T12:21:05.165Z,100.00
2022-09-09T12:36:07.580Z,100.00
2022-09-09T12:51:32.604Z,100.00
2022-09-09T13:06:38.427Z,87.06
2022-09-09T13:21:40.630Z,85.19
2022-09-09T13:36:42.867Z,79.95
2022-09-09T13:52:03.019Z,78.95
2022-09-09T14:07:05.337Z,85.06
2022-09-09T14:22:07.742Z,80.39
2022-09-09T14:37:09.931Z,77.96
2022-09-09T14:52:12.261Z,73.62
2022-09-09T15:07:14.488Z,77.89
2022-09-09T15:22:16.679Z,83.02
2022-09-09T15:37:19.278Z,99.27
2022-09-09T15:52:21.468Z,82.41
2022-09-09T16:07:23.655Z,72.20
2022-09-09T16:22:25.834Z,76.49
2022-09-09T16:37:28.422Z,74.95
2022-09-09T16:52:30.806Z,70.92
2022-09-09T17:07:33.488Z,74.64
2022-09-09T17:22:35.922Z,100.00
2022-09-09T17:37:38.107Z,100.00
2022-09-09T17:52:41.577Z,100.00
2022-09-09T18:07:43.763Z,100.00
2022-09-09T18:22:45.942Z,100.00
2022-09-09T18:37:48.148Z,100.00
2022-09-09T18:52:50.531Z,100.00
2022-09-09T19:07:52.757Z,100.00
2022-09-09T19:22:55.155Z,100.00
2022-09-09T19:37:59.358Z,100.00
2022-09-09T19:53:01.573Z,100.00
2022-09-09T20:08:03.744Z,100.00
2022-09-09T20:23:06.063Z,100.00
2022-09-09T20:38:08.261Z,100.00
2022-09-09T20:53:10.437Z,100.00
2022-09-09T21:08:12.786Z,100.00
2022-09-09T21:23:15.576Z,100.00
2022-09-09T21:38:22.632Z,100.00
2022-09-09T21:53:24.995Z,100.00
2022-09-09T22:08:27.229Z,100.00
2022-09-09T22:23:31.698Z,100.00
2022-09-09T22:38:35.299Z,100.00
2022-09-09T22:53:38.199Z,100.00
2022-09-09T23:08:41.313Z,100.00
2022-09-09T23:23:45.274Z,100.00
2022-09-09T23:38:47.520Z,100.00
2022-09-09T23:53:53.000Z,100.00
